createdAt,value
2023-05-16T00:00:28.826Z,79.15
2023-05-16T00:03:21.111Z,78.93
2023-05-16T00:05:53.482Z,78.88
2023-05-16T00:08:26.924Z,78.91
2023-05-16T00:10:59.090Z,78.79
2023-05-16T00:13:31.954Z,78.94
2023-05-16T00:16:05.250Z,78.98
2023-05-16T00:18:37.791Z,79.13
2023-05-16T00:21:12.974Z,79.02
2023-05-16T00:23:44.848Z,79.11
2023-05-16T00:26:16.628Z,79.26
2023-05-16T00:28:49.097Z,79.43
2023-05-16T00:31:20.916Z,79.17
2023-05-16T00:33:52.801Z,78.94
2023-05-16T00:36:24.765Z,78.93
2023-05-16T00:38:56.510Z,78.99
2023-05-16T00:41:28.321Z,78.77
2023-05-16T00:44:00.061Z,78.84
2023-05-16T00:46:32.823Z,78.72
2023-05-16T00:49:06.140Z,78.75
2023-05-16T00:51:39.170Z,78.80
2023-05-16T00:54:11.240Z,78.50
2023-05-16T00:56:43.248Z,78.79
2023-05-16T00:59:15.348Z,78.83
2023-05-16T01:01:48.530Z,78.67
2023-05-16T01:04:20.943Z,78.43
2023-05-16T01:06:53.305Z,78.81
2023-05-16T01:09:25.245Z,78.54
2023-05-16T01:12:02.889Z,78.79
2023-05-16T01:14:42.755Z,78.81
2023-05-16T01:17:24.908Z,78.81
2023-05-16T01:20:08.415Z,78.87
2023-05-16T01:22:53.720Z,78.84
2023-05-16T01:25:41.316Z,78.67
2023-05-16T01:28:13.570Z,78.73
2023-05-16T01:30:47.283Z,78.68
2023-05-16T01:33:19.144Z,78.60
2023-05-16T01:35:57.066Z,78.58
2023-05-16T01:38:31.934Z,78.59
2023-05-16T01:41:09.451Z,78.63
2023-05-16T01:43:45.639Z,78.63
2023-05-16T01:46:21.319Z,78.60
2023-05-16T01:49:00.159Z,78.66
2023-05-16T01:51:34.582Z,78.58
2023-05-16T01:54:10.246Z,78.66
2023-05-16T01:56:42.387Z,78.85
2023-05-16T01:59:15.078Z,78.87
2023-05-16T02:01:46.892Z,78.88
2023-05-16T02:04:18.890Z,78.67
2023-05-16T02:06:51.120Z,78.92
2023-05-16T02:09:23.205Z,78.69
2023-05-16T02:11:55.045Z,78.89
2023-05-16T02:14:27.181Z,78.71
2023-05-16T02:16:59.175Z,78.72
2023-05-16T02:19:31.089Z,78.77
2023-05-16T02:22:02.909Z,78.50
2023-05-16T02:24:35.074Z,78.86
2023-05-16T02:27:08.176Z,78.86
2023-05-16T02:29:40.006Z,78.93
2023-05-16T02:32:12.488Z,78.84
2023-05-16T02:34:44.913Z,78.77
2023-05-16T02:37:16.702Z,78.84
2023-05-16T02:39:48.523Z,78.81
2023-05-16T02:42:21.020Z,78.78
2023-05-16T02:44:52.954Z,78.83
2023-05-16T02:47:24.936Z,78.80
2023-05-16T02:49:56.838Z,79.06
2023-05-16T02:52:28.859Z,78.79
2023-05-16T02:55:16.918Z,79.07
2023-05-16T02:57:52.631Z,79.07
2023-05-16T03:00:24.921Z,79.07
2023-05-16T03:02:57.180Z,79.32
2023-05-16T03:05:29.415Z,79.18
2023-05-16T03:08:01.920Z,79.35
2023-05-16T03:10:33.817Z,79.17
2023-05-16T03:13:08.402Z,79.19
2023-05-16T03:15:40.318Z,79.09
2023-05-16T03:18:12.209Z,79.27
2023-05-16T03:20:44.236Z,78.98
2023-05-16T03:23:16.035Z,78.96
2023-05-16T03:25:47.909Z,78.87
2023-05-16T03:28:20.101Z,78.97
2023-05-16T03:30:51.922Z,78.86
2023-05-16T03:33:23.738Z,78.76
2023-05-16T03:35:55.478Z,78.87
2023-05-16T03:38:27.507Z,78.97
2023-05-16T03:40:59.301Z,78.90
2023-05-16T03:43:32.507Z,78.74
2023-05-16T03:46:05.310Z,78.83
2023-05-16T03:48:37.118Z,78.84
2023-05-16T03:51:09.106Z,78.83
2023-05-16T03:53:41.544Z,78.74
2023-05-16T03:56:13.401Z,78.86
2023-05-16T03:58:45.220Z,78.67
2023-05-16T04:01:17.222Z,78.69
2023-05-16T04:03:48.973Z,78.83
2023-05-16T04:06:21.626Z,78.80
2023-05-16T04:08:53.686Z,78.77
2023-05-16T04:11:27.497Z,78.90
2023-05-16T04:13:59.822Z,78.51
2023-05-16T04:16:31.733Z,78.70
2023-05-16T04:19:04.358Z,78.70
2023-05-16T04:21:36.998Z,78.35
2023-05-16T04:24:10.569Z,78.18
2023-05-16T04:26:42.420Z,78.34
2023-05-16T04:29:14.424Z,77.90
2023-05-16T04:31:46.170Z,77.76
2023-05-16T04:34:18.041Z,77.63
2023-05-16T04:36:49.850Z,77.66
2023-05-16T04:39:21.722Z,77.44
2023-05-16T04:41:53.563Z,76.90
2023-05-16T04:44:25.370Z,76.69
2023-05-16T04:46:57.258Z,76.54
2023-05-16T04:49:29.587Z,75.70
2023-05-16T04:52:01.423Z,76.03
2023-05-16T04:54:34.042Z,75.91
2023-05-16T04:57:06.423Z,75.09
2023-05-16T04:59:38.608Z,74.73
2023-05-16T05:02:10.437Z,74.32
2023-05-16T05:04:42.782Z,74.16
2023-05-16T05:07:14.773Z,74.09
2023-05-16T05:09:46.664Z,73.55
2023-05-16T05:12:18.488Z,72.96
2023-05-16T05:14:50.484Z,72.97
2023-05-16T05:17:22.760Z,72.74
2023-05-16T05:19:54.777Z,72.71
2023-05-16T05:22:26.570Z,72.11
2023-05-16T05:24:58.431Z,72.03
2023-05-16T05:27:30.210Z,71.25
2023-05-16T05:30:01.973Z,71.17
2023-05-16T05:32:33.796Z,70.53
2023-05-16T05:35:06.884Z,70.29
2023-05-16T05:37:38.725Z,69.98
2023-05-16T05:40:12.775Z,69.92
2023-05-16T05:42:46.864Z,69.48
2023-05-16T05:45:19.472Z,70.09
2023-05-16T05:47:51.459Z,70.01
2023-05-16T05:50:23.351Z,70.40
2023-05-16T05:52:56.476Z,70.32
2023-05-16T05:55:28.813Z,69.96
2023-05-16T05:58:00.884Z,70.05
2023-05-16T06:00:32.718Z,69.80
2023-05-16T06:03:04.598Z,69.61
2023-05-16T06:05:36.473Z,69.65
2023-05-16T06:08:08.410Z,69.40
2023-05-16T06:10:40.421Z,69.20
2023-05-16T06:13:12.594Z,69.01
2023-05-16T06:15:44.407Z,68.78
2023-05-16T06:18:16.329Z,68.38
2023-05-16T06:20:48.211Z,68.01
2023-05-16T06:23:21.314Z,67.67
2023-05-16T06:25:53.506Z,64.26
2023-05-16T06:28:25.376Z,61.94
2023-05-16T06:30:57.131Z,61.22
2023-05-16T06:33:28.957Z,59.76
2023-05-16T06:36:01.335Z,57.97
2023-05-16T06:38:33.194Z,55.22
2023-05-16T06:41:05.077Z,53.55
2023-05-16T06:43:36.951Z,51.82
2023-05-16T06:46:09.037Z,51.29
2023-05-16T06:48:41.015Z,51.75
2023-05-16T06:51:12.875Z,52.44
2023-05-16T06:53:44.774Z,53.15
2023-05-16T06:56:16.601Z,53.92
2023-05-16T06:58:49.685Z,54.29
2023-05-16T07:01:21.928Z,54.05
2023-05-16T07:03:53.884Z,54.09
2023-05-16T07:06:25.842Z,53.63
2023-05-16T07:08:57.711Z,54.44
2023-05-16T07:11:29.645Z,54.39
2023-05-16T07:14:01.606Z,54.30
2023-05-16T07:16:34.968Z,54.49
2023-05-16T07:19:07.340Z,53.95
2023-05-16T07:21:39.373Z,54.46
2023-05-16T07:24:12.088Z,53.86
2023-05-16T07:26:44.222Z,53.92
2023-05-16T07:29:16.456Z,53.84
2023-05-16T07:31:48.367Z,54.24
2023-05-16T07:34:20.246Z,53.39
2023-05-16T07:36:52.148Z,53.81
2023-05-16T07:39:23.924Z,54.17
2023-05-16T07:41:56.012Z,54.56
2023-05-16T07:44:28.933Z,54.56
2023-05-16T07:47:01.096Z,54.53
2023-05-16T07:49:33.146Z,54.15
2023-05-16T07:52:05.342Z,53.92
2023-05-16T07:54:38.502Z,54.24
2023-05-16T07:57:10.695Z,54.34
2023-05-16T07:59:42.621Z,54.50
2023-05-16T08:02:14.620Z,54.89
2023-05-16T08:04:46.988Z,53.90
2023-05-16T08:07:18.972Z,53.43
2023-05-16T08:09:50.901Z,54.00
2023-05-16T08:12:22.911Z,54.45
2023-05-16T08:14:54.783Z,54.22
2023-05-16T08:17:26.892Z,52.74
2023-05-16T08:19:59.330Z,51.25
2023-05-16T08:22:31.358Z,52.49
2023-05-16T08:25:03.279Z,52.10
2023-05-16T08:27:35.200Z,52.52
2023-05-16T08:30:09.115Z,53.19
2023-05-16T08:32:41.553Z,51.94
2023-05-16T08:35:13.810Z,51.65
2023-05-16T08:37:45.682Z,49.66
2023-05-16T08:40:17.827Z,49.21
2023-05-16T08:42:49.740Z,50.04
2023-05-16T08:45:22.065Z,50.36
2023-05-16T08:47:59.242Z,50.27
2023-05-16T08:50:33.367Z,49.45
2023-05-16T08:53:09.297Z,48.90
2023-05-16T08:56:04.187Z,50.78
2023-05-16T08:58:36.091Z,51.10
2023-05-16T09:01:10.232Z,50.84
2023-05-16T09:03:42.558Z,50.26
2023-05-16T09:06:16.391Z,51.03
2023-05-16T09:08:49.243Z,51.20
2023-05-16T09:11:21.851Z,51.13
2023-05-16T09:13:53.764Z,50.12
2023-05-16T09:16:25.829Z,50.20
2023-05-16T09:19:00.058Z,50.61
2023-05-16T09:21:33.734Z,50.28
2023-05-16T09:24:10.628Z,50.68
2023-05-16T09:26:42.683Z,50.63
2023-05-16T09:29:15.548Z,50.70
2023-05-16T09:31:47.947Z,50.75
2023-05-16T09:34:19.824Z,51.14
2023-05-16T09:36:57.245Z,49.96
2023-05-16T09:39:30.148Z,50.72
2023-05-16T09:42:03.410Z,51.02
2023-05-16T09:44:35.658Z,50.53
2023-05-16T09:47:08.596Z,50.45
2023-05-16T09:49:41.137Z,51.01
2023-05-16T09:52:13.459Z,50.72
2023-05-16T09:54:45.318Z,50.72
2023-05-16T09:57:21.711Z,51.15
2023-05-16T09:59:53.662Z,51.66
2023-05-16T10:02:25.889Z,51.17
2023-05-16T10:04:57.786Z,51.64
2023-05-16T10:07:30.036Z,51.18
2023-05-16T10:10:05.383Z,51.32
2023-05-16T10:12:38.057Z,51.18
2023-05-16T10:15:11.654Z,51.25
2023-05-16T10:17:47.399Z,50.43
2023-05-16T10:20:19.898Z,49.15
2023-05-16T10:22:53.090Z,49.27
2023-05-16T10:25:30.645Z,49.59
2023-05-16T10:28:03.740Z,48.83
2023-05-16T10:30:36.233Z,49.58
2023-05-16T10:33:08.254Z,49.48
2023-05-16T10:35:40.190Z,49.34
2023-05-16T10:38:13.050Z,49.28
2023-05-16T10:40:45.422Z,48.30
2023-05-16T10:43:26.686Z,48.78
2023-05-16T10:45:59.528Z,49.08
2023-05-16T10:48:36.541Z,48.80
2023-05-16T10:51:38.864Z,48.02
2023-05-16T10:54:15.678Z,47.88
2023-05-16T10:56:58.035Z,48.36
2023-05-16T10:59:29.937Z,48.52
2023-05-16T11:02:01.796Z,48.85
2023-05-16T11:04:51.748Z,48.02
2023-05-16T11:07:25.686Z,48.41
2023-05-16T11:10:04.418Z,47.81
2023-05-16T11:12:46.580Z,48.59
2023-05-16T11:15:24.146Z,47.98
2023-05-16T11:18:06.997Z,48.20
2023-05-16T11:20:40.356Z,47.64
2023-05-16T11:23:26.292Z,48.35
2023-05-16T11:26:00.847Z,48.35
2023-05-16T11:28:32.729Z,47.44
2023-05-16T11:31:05.486Z,47.41
2023-05-16T11:33:37.363Z,48.09
2023-05-16T11:36:16.195Z,47.77
2023-05-16T11:38:48.566Z,47.46
2023-05-16T11:41:22.029Z,47.99
2023-05-16T11:43:53.885Z,47.37
2023-05-16T11:46:25.983Z,47.76
2023-05-16T11:48:59.974Z,47.00
2023-05-16T11:51:31.161Z,46.09
2023-05-16T11:54:05.104Z,47.26
2023-05-16T11:56:37.910Z,47.13
2023-05-16T11:59:10.082Z,46.56
2023-05-16T12:01:42.652Z,47.13
2023-05-16T12:04:15.743Z,47.52
2023-05-16T12:06:58.641Z,47.30
2023-05-16T12:09:31.006Z,47.76
2023-05-16T12:12:04.810Z,47.34
2023-05-16T12:14:36.800Z,47.02
2023-05-16T12:17:08.922Z,46.88
2023-05-16T12:19:40.971Z,46.56
2023-05-16T12:22:19.980Z,47.29
2023-05-16T12:24:51.968Z,46.98
2023-05-16T12:27:26.338Z,47.18
2023-05-16T12:30:00.998Z,46.82
2023-05-16T12:32:32.970Z,47.12
2023-05-16T12:35:05.447Z,46.60
2023-05-16T12:37:37.284Z,46.52
2023-05-16T12:40:13.492Z,45.99
2023-05-16T12:42:47.629Z,44.81
2023-05-16T12:45:19.690Z,44.85
2023-05-16T12:47:52.186Z,45.84
2023-05-16T12:50:24.330Z,46.07
2023-05-16T12:53:01.796Z,45.53
2023-05-16T12:55:34.248Z,45.94
2023-05-16T12:58:06.413Z,45.42
2023-05-16T13:00:39.281Z,45.93
2023-05-16T13:03:12.421Z,45.97
2023-05-16T13:05:44.625Z,46.74
2023-05-16T13:08:16.622Z,45.81
2023-05-16T13:10:48.854Z,46.72
2023-05-16T13:13:32.498Z,46.69
2023-05-16T13:16:10.490Z,46.41
2023-05-16T13:18:42.909Z,45.77
2023-05-16T13:21:15.200Z,45.60
2023-05-16T13:23:47.024Z,45.80
2023-05-16T13:26:19.121Z,45.64
2023-05-16T13:28:53.295Z,45.97
2023-05-16T13:31:23.607Z,45.69
2023-05-16T13:33:55.554Z,45.90
2023-05-16T13:36:28.665Z,46.43
2023-05-16T13:39:03.398Z,45.92
2023-05-16T13:41:37.894Z,44.93
2023-05-16T13:44:10.070Z,44.24
2023-05-16T13:46:41.933Z,45.15
2023-05-16T13:49:13.813Z,45.31
2023-05-16T13:51:45.885Z,44.94
2023-05-16T13:54:18.643Z,45.10
2023-05-16T13:56:50.821Z,45.14
2023-05-16T13:59:45.682Z,45.47
2023-05-16T14:02:15.436Z,45.45
2023-05-16T14:04:49.070Z,45.85
2023-05-16T14:07:21.811Z,46.45
2023-05-16T14:09:53.737Z,47.14
2023-05-16T14:12:25.823Z,47.15
2023-05-16T14:14:57.874Z,47.90
2023-05-16T14:17:29.802Z,47.99
2023-05-16T14:20:01.767Z,48.19
2023-05-16T14:22:33.786Z,47.66
2023-05-16T14:25:06.273Z,47.36
2023-05-16T14:27:38.280Z,47.39
2023-05-16T14:30:13.372Z,46.74
2023-05-16T14:32:45.254Z,47.16
2023-05-16T14:35:17.767Z,46.64
2023-05-16T14:37:50.264Z,47.61
2023-05-16T14:40:23.658Z,47.46
2023-05-16T14:42:55.452Z,47.49
2023-05-16T14:45:27.566Z,47.04
2023-05-16T14:47:59.820Z,46.90
2023-05-16T14:50:33.431Z,46.16
2023-05-16T14:53:05.247Z,45.46
2023-05-16T14:55:37.177Z,45.59
2023-05-16T14:58:09.428Z,46.02
2023-05-16T15:00:41.357Z,46.63
2023-05-16T15:03:15.679Z,47.02
2023-05-16T15:05:48.401Z,46.63
2023-05-16T15:08:21.013Z,47.51
2023-05-16T15:10:53.129Z,46.59
2023-05-16T15:13:25.226Z,46.71
2023-05-16T15:15:58.005Z,47.00
2023-05-16T15:18:30.045Z,47.73
2023-05-16T15:21:01.963Z,47.52
2023-05-16T15:23:34.215Z,47.16
2023-05-16T15:26:06.418Z,47.85
2023-05-16T15:28:38.204Z,47.95
2023-05-16T15:31:10.474Z,47.88
2023-05-16T15:33:42.805Z,47.53
2023-05-16T15:36:14.747Z,48.00
2023-05-16T15:38:47.614Z,47.97
2023-05-16T15:41:39.597Z,47.26
2023-05-16T15:44:10.041Z,47.85
2023-05-16T15:46:42.049Z,47.86
2023-05-16T15:49:13.941Z,47.69
2023-05-16T15:51:45.912Z,48.19
2023-05-16T15:54:17.866Z,48.32
2023-05-16T15:56:49.882Z,48.59
2023-05-16T15:59:22.349Z,48.44
2023-05-16T16:01:54.377Z,48.30
2023-05-16T16:04:26.625Z,48.27
2023-05-16T16:06:58.645Z,49.09
2023-05-16T16:09:30.471Z,48.63
2023-05-16T16:12:02.845Z,48.50
2023-05-16T16:14:34.805Z,48.86
2023-05-16T16:17:07.159Z,49.11
2023-05-16T16:19:39.262Z,49.29
2023-05-16T16:22:11.184Z,49.19
2023-05-16T16:24:43.073Z,48.82
2023-05-16T16:27:14.881Z,49.03
2023-05-16T16:29:46.803Z,49.10
2023-05-16T16:32:18.533Z,50.03
2023-05-16T16:34:50.773Z,49.64
2023-05-16T16:37:23.045Z,51.03
2023-05-16T16:39:54.901Z,50.71
2023-05-16T16:42:27.107Z,50.87
2023-05-16T16:44:59.265Z,50.91
2023-05-16T16:47:32.477Z,51.00
2023-05-16T16:50:04.528Z,50.73
2023-05-16T16:52:36.776Z,50.74
2023-05-16T16:55:10.090Z,50.63
2023-05-16T16:57:41.884Z,50.69
2023-05-16T17:00:15.452Z,50.78
2023-05-16T17:02:47.592Z,51.11
2023-05-16T17:05:19.729Z,51.32
2023-05-16T17:07:51.684Z,51.21
2023-05-16T17:10:23.793Z,51.02
2023-05-16T17:12:56.086Z,51.15
2023-05-16T17:15:29.319Z,51.69
2023-05-16T17:18:01.812Z,51.71
2023-05-16T17:20:33.835Z,52.41
2023-05-16T17:23:05.941Z,52.70
2023-05-16T17:25:37.717Z,53.11
2023-05-16T17:28:11.928Z,54.50
2023-05-16T17:30:43.933Z,54.72
2023-05-16T17:33:15.938Z,55.19
2023-05-16T17:35:48.252Z,55.07
2023-05-16T17:38:20.028Z,56.24
2023-05-16T17:40:52.189Z,56.38
2023-05-16T17:43:24.558Z,56.46
2023-05-16T17:45:56.582Z,57.13
2023-05-16T17:48:28.891Z,56.73
2023-05-16T17:51:01.431Z,57.30
2023-05-16T17:53:33.180Z,58.14
2023-05-16T17:56:04.965Z,58.38
2023-05-16T17:58:36.807Z,59.20
2023-05-16T18:01:09.431Z,59.68
2023-05-16T18:03:43.542Z,59.36
2023-05-16T18:06:15.597Z,59.89
2023-05-16T18:08:47.503Z,60.44
2023-05-16T18:11:19.857Z,60.40
2023-05-16T18:13:52.084Z,61.68
2023-05-16T18:16:24.533Z,60.88
2023-05-16T18:18:56.878Z,61.21
2023-05-16T18:21:28.855Z,61.19
2023-05-16T18:24:00.931Z,61.33
2023-05-16T18:26:32.790Z,62.34
2023-05-16T18:29:04.822Z,62.53
2023-05-16T18:31:38.164Z,62.77
2023-05-16T18:34:10.378Z,63.03
2023-05-16T18:36:42.404Z,63.20
2023-05-16T18:39:14.312Z,63.03
2023-05-16T18:41:48.170Z,63.42
2023-05-16T18:44:18.818Z,63.58
2023-05-16T18:46:50.707Z,63.97
2023-05-16T18:49:22.645Z,63.68
2023-05-16T18:51:54.738Z,63.76
2023-05-16T18:54:26.801Z,63.79
2023-05-16T18:56:59.319Z,63.62
2023-05-16T18:59:31.748Z,63.47
2023-05-16T19:02:04.611Z,63.70
2023-05-16T19:04:36.789Z,64.32
2023-05-16T19:07:09.475Z,64.53
2023-05-16T19:09:41.655Z,64.59
2023-05-16T19:12:13.549Z,65.31
2023-05-16T19:14:45.413Z,65.69
2023-05-16T19:17:17.145Z,65.35
2023-05-16T19:19:49.044Z,65.39
2023-05-16T19:22:21.074Z,65.14
2023-05-16T19:24:53.043Z,65.12
2023-05-16T19:27:25.274Z,65.18
2023-05-16T19:29:57.074Z,65.65
2023-05-16T19:32:28.879Z,66.03
2023-05-16T19:35:00.745Z,66.40
2023-05-16T19:37:32.595Z,66.82
2023-05-16T19:40:04.563Z,67.31
2023-05-16T19:42:36.355Z,67.35
2023-05-16T19:45:11.470Z,67.10
2023-05-16T19:47:45.504Z,67.08
2023-05-16T19:50:15.913Z,67.32
2023-05-16T19:52:47.886Z,67.29
2023-05-16T19:55:19.720Z,66.94
2023-05-16T19:57:52.370Z,67.22
2023-05-16T20:00:24.915Z,67.34
2023-05-16T20:02:57.069Z,67.40
2023-05-16T20:05:29.160Z,67.59
2023-05-16T20:08:01.215Z,67.83
2023-05-16T20:10:33.058Z,67.95
2023-05-16T20:13:04.857Z,67.97
2023-05-16T20:15:36.797Z,68.12
2023-05-16T20:18:08.761Z,68.20
2023-05-16T20:20:40.742Z,68.37
2023-05-16T20:23:12.602Z,68.28
2023-05-16T20:25:44.633Z,68.41
2023-05-16T20:28:17.108Z,68.58
2023-05-16T20:30:49.187Z,68.54
2023-05-16T20:33:21.284Z,68.52
2023-05-16T20:35:53.188Z,68.57
2023-05-16T20:38:24.977Z,68.77
2023-05-16T20:40:56.888Z,68.32
2023-05-16T20:43:29.332Z,68.42
2023-05-16T20:46:01.230Z,68.41
2023-05-16T20:48:33.633Z,68.51
2023-05-16T20:51:05.473Z,68.00
2023-05-16T20:53:37.343Z,68.10
2023-05-16T20:56:09.546Z,68.16
2023-05-16T20:58:42.308Z,68.11
2023-05-16T21:01:14.200Z,68.85
2023-05-16T21:03:46.196Z,69.25
2023-05-16T21:06:18.422Z,69.23
2023-05-16T21:08:50.496Z,69.19
2023-05-16T21:11:22.805Z,69.14
2023-05-16T21:13:54.894Z,69.24
2023-05-16T21:16:27.034Z,69.22
2023-05-16T21:19:01.633Z,69.45
2023-05-16T21:21:33.757Z,69.41
2023-05-16T21:24:05.697Z,69.49
2023-05-16T21:26:37.598Z,69.66
2023-05-16T21:29:09.469Z,69.88
2023-05-16T21:31:41.402Z,70.12
2023-05-16T21:34:13.559Z,70.03
2023-05-16T21:36:45.494Z,70.21
2023-05-16T21:39:17.358Z,70.33
2023-05-16T21:41:49.196Z,70.40
2023-05-16T21:44:21.496Z,70.55
2023-05-16T21:46:54.281Z,71.07
2023-05-16T21:49:26.145Z,71.00
2023-05-16T21:52:00.995Z,71.11
2023-05-16T21:54:33.088Z,71.11
2023-05-16T21:57:06.575Z,71.24
2023-05-16T21:59:38.459Z,71.13
2023-05-16T22:02:10.300Z,71.31
2023-05-16T22:04:42.287Z,71.27
2023-05-16T22:07:14.208Z,71.37
2023-05-16T22:09:46.033Z,71.37
2023-05-16T22:12:17.938Z,71.34
2023-05-16T22:14:50.307Z,71.29
2023-05-16T22:17:22.424Z,71.42
2023-05-16T22:19:54.341Z,71.58
2023-05-16T22:22:26.187Z,71.77
2023-05-16T22:24:58.055Z,71.87
2023-05-16T22:27:29.920Z,71.96
2023-05-16T22:30:01.892Z,72.24
2023-05-16T22:32:34.006Z,72.23
2023-05-16T22:35:06.524Z,72.42
2023-05-16T22:37:38.457Z,72.64
2023-05-16T22:40:13.245Z,73.03
2023-05-16T22:42:44.988Z,73.21
2023-05-16T22:45:16.942Z,73.18
2023-05-16T22:47:50.003Z,73.25
2023-05-16T22:50:22.007Z,73.25
2023-05-16T22:52:54.055Z,73.35
2023-05-16T22:55:26.545Z,73.46
2023-05-16T22:58:00.753Z,73.22
2023-05-16T23:00:32.790Z,73.20
2023-05-16T23:03:04.748Z,73.34
2023-05-16T23:05:36.965Z,73.32
2023-05-16T23:08:09.131Z,73.74
2023-05-16T23:10:41.032Z,73.74
2023-05-16T23:13:13.078Z,73.86
2023-05-16T23:15:44.915Z,74.09
2023-05-16T23:18:16.834Z,74.25
2023-05-16T23:20:48.821Z,74.06
2023-05-16T23:23:20.750Z,74.30
2023-05-16T23:25:52.566Z,74.06
2023-05-16T23:28:24.549Z,74.14
2023-05-16T23:30:56.365Z,74.21
2023-05-16T23:33:28.368Z,74.28
2023-05-16T23:36:00.472Z,74.44
2023-05-16T23:38:32.381Z,74.22
2023-05-16T23:41:04.333Z,74.41
2023-05-16T23:43:36.270Z,74.39
2023-05-16T23:46:08.340Z,74.47
2023-05-16T23:48:40.310Z,74.46
2023-05-16T23:51:12.155Z,74.49
2023-05-16T23:53:44.057Z,74.65
2023-05-16T23:56:15.952Z,75.00
2023-05-16T23:58:49.052Z,75.16
